KMIW

Details ICAO KMIW
Name MARSHALLTOWN MUNI
Region United States
Timezone America/Chicago (UTC-6.0)
Plans Departing 0
Arriving 1
Stats Elevation 974 ft / 297 m (AMSL)
Location 42.112670° -92.918231°
Runways 2
Magnetic Variation 0.216° E
Sunrise 2017-12-10 13:30:49 UTC / 2017-12-10 07:30:49 Local
Sunset 2017-12-10 22:41:17 UTC / 2017-12-10 16:41:17 Local
Advertisement - Login to hide

Runways

ID Width Length Bearing (true) Bearing (mag) Surface Threshold Offset Overrun Length
12 100 ft / 30 m 5,001 ft / 1,524 m 127.17° 126.95° Asphalt 0 ft / 0 m 0 ft / 0 m
18 50 ft / 15 m 2,808 ft / 856 m 183.54° 183.32° Asphalt 0 ft / 0 m 0 ft / 0 m
30 100 ft / 30 m 5,001 ft / 1,524 m 307.18° 306.96° Asphalt 0 ft / 0 m 0 ft / 0 m
36 50 ft / 15 m 2,808 ft / 856 m 3.54° 3.32° Asphalt 0 ft / 0 m 0 ft / 0 m

Map

Weather


0- 5 10 15 20 25 30 35+ Temperature / ° C

Clouds and Precipitation
Forecast for 2017-12-11 00:00 UTC. Updated 36 minutes ago

Ground ~20,000 ft ~40,000 ft Winds

METAR

KMIW 102253Z AUTO 33008KT 10SM CLR 02/M05 A3005 RMK AO2 SLP188 T00171050

TAF

Not found

Frequencies

Recorded 128.32 MHz ASOS
Clearance 120.90 MHz WATERLOO CLNC DEL
Unicom 122.80 MHz CTAF/UNICOM
Approach 120.90 MHz WATERLOO APP/DEP
Warning: Do not use this data for real-world aviation or navigation. No guarantee of current accuracy is given.